createdAt,value
2024-03-03T00:00:49.309Z,33.50
2024-03-03T00:03:16.926Z,33.70
2024-03-03T00:05:44.747Z,43.70
2024-03-03T00:08:12.322Z,39.60
2024-03-03T00:10:40.082Z,38.30
2024-03-03T00:13:07.551Z,43.40
2024-03-03T00:15:35.176Z,39.30
2024-03-03T00:18:02.810Z,37.70
2024-03-03T00:20:30.516Z,43.20
2024-03-03T00:22:57.996Z,38.70
2024-03-03T00:25:25.487Z,38.50
2024-03-03T00:27:53.006Z,44.10
2024-03-03T00:30:20.495Z,36.10
2024-03-03T00:32:47.971Z,41.40
2024-03-03T00:35:16.209Z,36.50
2024-03-03T00:37:43.769Z,36.70
2024-03-03T00:40:12.432Z,38.20
2024-03-03T00:42:39.990Z,39.10
2024-03-03T00:45:07.720Z,39.40
2024-03-03T00:47:35.746Z,46.80
2024-03-03T00:50:03.940Z,38.90
2024-03-03T00:52:31.507Z,39.00
2024-03-03T00:54:59.378Z,40.10
2024-03-03T00:57:27.072Z,41.50
2024-03-03T00:59:54.616Z,39.00
2024-03-03T01:02:22.125Z,39.10
2024-03-03T01:04:51.538Z,39.40
2024-03-03T01:07:19.266Z,42.30
2024-03-03T01:09:47.006Z,42.70
2024-03-03T01:12:14.746Z,39.50
2024-03-03T01:14:42.291Z,44.40
2024-03-03T01:17:09.948Z,42.00
2024-03-03T01:19:38.014Z,41.40
2024-03-03T01:22:05.911Z,41.00
2024-03-03T01:24:33.448Z,41.10
2024-03-03T01:27:02.222Z,45.40
2024-03-03T01:29:29.732Z,47.60
2024-03-03T01:31:57.249Z,45.30
2024-03-03T01:34:26.938Z,44.30
2024-03-03T01:36:54.832Z,42.70
2024-03-03T01:39:22.360Z,44.00
2024-03-03T01:41:49.857Z,45.20
2024-03-03T01:44:17.405Z,46.20
2024-03-03T01:46:45.069Z,44.10
2024-03-03T01:49:15.705Z,47.90
2024-03-03T01:51:43.544Z,46.30
2024-03-03T01:54:11.064Z,43.30
2024-03-03T01:56:38.537Z,41.00
2024-03-03T01:59:06.082Z,38.90
2024-03-03T02:01:33.928Z,46.60
2024-03-03T02:04:01.609Z,48.50
2024-03-03T02:06:31.355Z,43.40
2024-03-03T02:08:59.349Z,42.60
2024-03-03T02:11:26.934Z,41.10
2024-03-03T02:13:54.579Z,44.10
2024-03-03T02:16:22.229Z,40.30
2024-03-03T02:18:49.827Z,46.00
2024-03-03T02:21:25.009Z,41.20
2024-03-03T02:23:53.023Z,43.70
2024-03-03T02:26:22.642Z,46.90
2024-03-03T02:28:54.357Z,43.50
2024-03-03T02:31:22.334Z,41.50
2024-03-03T02:33:50.517Z,38.60
2024-03-03T02:36:18.255Z,40.30
2024-03-03T02:38:52.330Z,41.80
2024-03-03T02:41:19.843Z,40.90
2024-03-03T02:43:47.455Z,45.10
2024-03-03T02:46:15.269Z,44.10
2024-03-03T02:48:42.942Z,38.60
2024-03-03T02:51:10.499Z,52.20
2024-03-03T02:53:38.515Z,49.80
2024-03-03T02:56:08.422Z,57.50
2024-03-03T02:58:36.122Z,46.50
2024-03-03T03:01:04.012Z,40.20
2024-03-03T03:03:32.474Z,41.40
2024-03-03T03:06:00.151Z,38.70
2024-03-03T03:08:27.594Z,46.90
2024-03-03T03:10:55.557Z,43.80
2024-03-03T03:13:23.106Z,37.80
2024-03-03T03:15:51.046Z,39.20
2024-03-03T03:18:18.638Z,41.70
2024-03-03T03:20:46.255Z,42.10
2024-03-03T03:23:13.851Z,44.10
2024-03-03T03:25:41.374Z,40.40
2024-03-03T03:28:08.916Z,37.30
2024-03-03T03:30:36.533Z,39.00
2024-03-03T03:33:04.370Z,48.10
2024-03-03T03:35:32.060Z,42.60
2024-03-03T03:37:59.891Z,37.00
2024-03-03T03:40:27.595Z,41.00
2024-03-03T03:42:55.309Z,36.40
2024-03-03T03:45:22.824Z,40.50
2024-03-03T03:47:50.477Z,42.10
2024-03-03T03:50:18.098Z,34.40
2024-03-03T03:52:45.628Z,41.70
2024-03-03T03:55:13.106Z,37.80
2024-03-03T03:57:40.668Z,38.50
2024-03-03T04:00:11.525Z,36.10
2024-03-03T04:02:42.276Z,36.40
2024-03-03T04:05:10.172Z,35.30
2024-03-03T04:07:38.865Z,38.90
2024-03-03T04:10:06.886Z,36.50
2024-03-03T04:12:34.428Z,35.70
2024-03-03T04:15:01.908Z,34.60
2024-03-03T04:17:29.456Z,35.80
2024-03-03T04:19:57.128Z,31.30
2024-03-03T04:22:24.772Z,37.10
2024-03-03T04:24:52.322Z,32.00
2024-03-03T04:27:19.801Z,40.60
2024-03-03T04:29:48.669Z,41.20
2024-03-03T04:32:16.222Z,32.90
2024-03-03T04:34:43.755Z,39.40
2024-03-03T04:37:11.586Z,37.20
2024-03-03T04:39:39.293Z,35.40
2024-03-03T04:42:06.862Z,35.80
2024-03-03T04:44:34.389Z,37.20
2024-03-03T04:47:01.919Z,36.80
2024-03-03T04:49:29.625Z,41.20
2024-03-03T04:51:57.162Z,31.50
2024-03-03T04:54:24.706Z,30.60
2024-03-03T04:56:52.231Z,33.00
2024-03-03T04:59:19.746Z,34.10
2024-03-03T05:01:47.274Z,28.70
2024-03-03T05:04:15.196Z,37.80
2024-03-03T05:06:46.178Z,30.70
2024-03-03T05:09:13.954Z,32.70
2024-03-03T05:11:41.534Z,32.60
2024-03-03T05:14:09.096Z,32.40
2024-03-03T05:16:36.676Z,29.90
2024-03-03T05:19:04.282Z,29.50
2024-03-03T05:21:31.764Z,33.10
2024-03-03T05:23:59.279Z,29.60
2024-03-03T05:26:27.720Z,33.80
2024-03-03T05:28:55.657Z,33.20
2024-03-03T05:31:23.259Z,33.00
2024-03-03T05:33:51.096Z,35.20
2024-03-03T05:36:18.613Z,32.90
2024-03-03T05:38:46.186Z,31.20
2024-03-03T05:41:13.640Z,34.40
2024-03-03T05:43:41.192Z,33.80
2024-03-03T05:46:08.883Z,30.70
2024-03-03T05:48:36.591Z,32.70
2024-03-03T05:51:04.170Z,32.80
2024-03-03T05:53:31.764Z,36.30
2024-03-03T05:55:59.280Z,31.40
2024-03-03T05:58:26.860Z,29.80
2024-03-03T06:00:54.504Z,30.50
2024-03-03T06:03:22.096Z,32.90
2024-03-03T06:05:49.566Z,31.20
2024-03-03T06:08:17.865Z,31.30
2024-03-03T06:10:45.371Z,29.40
2024-03-03T06:13:12.854Z,33.50
2024-03-03T06:15:40.828Z,32.80
2024-03-03T06:18:08.361Z,27.10
2024-03-03T06:20:35.902Z,27.70
2024-03-03T06:23:04.062Z,30.70
2024-03-03T06:25:32.921Z,30.40
2024-03-03T06:28:00.498Z,30.70
2024-03-03T06:30:28.132Z,34.30
2024-03-03T06:32:55.764Z,33.00
2024-03-03T06:35:23.283Z,30.10
2024-03-03T06:37:53.717Z,26.70
2024-03-03T06:40:21.510Z,34.70
2024-03-03T06:42:49.155Z,39.40
2024-03-03T06:45:16.804Z,30.50
2024-03-03T06:47:44.361Z,32.10
2024-03-03T06:50:12.639Z,29.10
2024-03-03T06:52:40.139Z,25.40
2024-03-03T06:55:08.536Z,28.20
2024-03-03T06:57:36.219Z,33.50
2024-03-03T07:00:04.840Z,31.20
2024-03-03T07:02:51.189Z,29.10
2024-03-03T07:05:18.756Z,32.10
2024-03-03T07:07:46.313Z,33.10
2024-03-03T07:10:13.876Z,29.30
2024-03-03T07:12:41.487Z,28.50
2024-03-03T07:15:10.044Z,28.20
2024-03-03T07:17:37.920Z,28.20
2024-03-03T07:20:07.126Z,28.30
2024-03-03T07:22:36.351Z,30.30
2024-03-03T07:25:04.421Z,29.80
2024-03-03T07:27:32.167Z,29.30
2024-03-03T07:29:59.735Z,28.60
2024-03-03T07:32:30.662Z,28.10
2024-03-03T07:34:58.489Z,32.60
2024-03-03T07:37:27.019Z,23.40
2024-03-03T07:39:54.603Z,28.90
2024-03-03T07:42:22.350Z,24.60
2024-03-03T07:44:49.850Z,26.00
2024-03-03T07:47:17.333Z,28.30
2024-03-03T07:49:44.857Z,26.70
2024-03-03T07:52:12.400Z,23.50
2024-03-03T07:54:39.910Z,25.40
2024-03-03T07:57:08.308Z,32.70
2024-03-03T07:59:35.772Z,26.50
2024-03-03T08:02:03.581Z,27.00
2024-03-03T08:04:31.457Z,31.00
2024-03-03T08:06:59.061Z,23.90
2024-03-03T08:09:26.923Z,30.10
2024-03-03T08:11:54.574Z,27.50
2024-03-03T08:14:22.102Z,29.40
2024-03-03T08:16:49.583Z,23.10
2024-03-03T08:19:17.150Z,22.60
2024-03-03T08:21:44.674Z,24.30
2024-03-03T08:24:12.453Z,25.00
2024-03-03T08:26:39.961Z,26.90
2024-03-03T08:29:08.282Z,26.80
2024-03-03T08:31:37.049Z,25.20
2024-03-03T08:34:04.736Z,25.20
2024-03-03T08:36:32.218Z,26.30
2024-03-03T08:38:59.763Z,26.70
2024-03-03T08:41:27.222Z,25.30
2024-03-03T08:43:54.725Z,24.10
2024-03-03T08:46:22.295Z,25.50
2024-03-03T08:48:50.021Z,32.60
2024-03-03T08:51:17.712Z,23.70
2024-03-03T08:53:45.290Z,21.10
2024-03-03T08:56:12.896Z,21.80
2024-03-03T08:58:41.181Z,22.70
2024-03-03T09:01:12.618Z,24.50
2024-03-03T09:03:40.220Z,25.00
2024-03-03T09:06:07.719Z,23.90
2024-03-03T09:08:35.318Z,28.50
2024-03-03T09:11:04.749Z,25.30
2024-03-03T09:13:32.234Z,25.90
2024-03-03T09:15:59.754Z,26.50
2024-03-03T09:18:27.381Z,29.10
2024-03-03T09:20:54.939Z,29.40
2024-03-03T09:23:22.457Z,26.70
2024-03-03T09:25:50.275Z,24.20
2024-03-03T09:28:17.874Z,26.20
2024-03-03T09:30:45.486Z,24.90
2024-03-03T09:33:13.302Z,23.20
2024-03-03T09:35:40.965Z,28.90
2024-03-03T09:38:09.101Z,26.80
2024-03-03T09:40:37.832Z,29.00
2024-03-03T09:43:08.165Z,23.10
2024-03-03T09:45:35.781Z,26.60
2024-03-03T09:48:04.105Z,25.20
2024-03-03T09:50:31.813Z,24.00
2024-03-03T09:52:59.427Z,23.20
2024-03-03T09:55:27.194Z,27.30
2024-03-03T09:57:54.933Z,29.70
2024-03-03T10:00:23.647Z,30.20
2024-03-03T10:02:51.331Z,24.40
2024-03-03T10:05:18.970Z,26.00
2024-03-03T10:07:53.831Z,28.00
2024-03-03T10:10:27.370Z,25.50
2024-03-03T10:12:55.401Z,28.40
2024-03-03T10:15:23.003Z,28.30
2024-03-03T10:17:51.828Z,32.20
2024-03-03T10:20:19.611Z,34.00
2024-03-03T10:22:48.055Z,34.90
2024-03-03T10:25:16.791Z,32.30
2024-03-03T10:27:46.223Z,38.40
2024-03-03T10:30:16.347Z,31.60
2024-03-03T10:32:44.029Z,31.80
2024-03-03T10:35:12.887Z,34.60
2024-03-03T10:37:56.913Z,31.40
2024-03-03T10:40:24.501Z,37.90
2024-03-03T10:42:52.104Z,35.60
2024-03-03T10:45:20.126Z,33.20
2024-03-03T10:47:49.014Z,38.10
2024-03-03T10:50:18.858Z,42.50
2024-03-03T10:52:46.788Z,30.90
2024-03-03T10:55:15.305Z,37.90
2024-03-03T10:57:44.155Z,40.90
2024-03-03T11:00:24.341Z,34.50
2024-03-03T11:02:54.991Z,34.80
2024-03-03T11:05:23.988Z,38.10
2024-03-03T11:07:51.678Z,38.30
2024-03-03T11:10:19.851Z,33.30
2024-03-03T11:12:51.405Z,40.20
2024-03-03T11:15:20.229Z,43.30
2024-03-03T11:17:59.406Z,37.10
2024-03-03T11:20:31.587Z,35.70
2024-03-03T11:23:20.589Z,36.90
2024-03-03T11:26:01.036Z,37.10
2024-03-03T11:28:30.007Z,33.90
2024-03-03T11:30:57.813Z,36.50
2024-03-03T11:33:25.466Z,38.30
2024-03-03T11:35:52.996Z,42.40
2024-03-03T11:38:21.858Z,39.40
2024-03-03T11:40:50.106Z,42.30
2024-03-03T11:43:17.729Z,32.80
2024-03-03T11:45:46.374Z,37.60
2024-03-03T11:48:14.473Z,27.00
2024-03-03T11:50:42.137Z,33.80
2024-03-03T11:53:11.150Z,43.90
2024-03-03T11:55:42.026Z,37.40
2024-03-03T11:58:09.758Z,43.30
2024-03-03T12:00:37.965Z,28.90
2024-03-03T12:03:07.597Z,36.20
2024-03-03T12:05:35.128Z,35.30
2024-03-03T12:08:02.779Z,37.20
2024-03-03T12:10:33.918Z,45.80
2024-03-03T12:13:02.862Z,36.80
2024-03-03T12:15:30.883Z,39.10
2024-03-03T12:17:59.825Z,30.40
2024-03-03T12:20:30.929Z,38.30
2024-03-03T12:24:09.587Z,37.80
2024-03-03T12:26:37.265Z,38.30
2024-03-03T12:29:04.954Z,35.20
2024-03-03T12:31:33.704Z,36.70
2024-03-03T12:34:01.409Z,33.70
2024-03-03T12:36:29.056Z,34.80
2024-03-03T12:38:56.626Z,30.50
2024-03-03T12:41:24.506Z,30.70
2024-03-03T12:43:56.876Z,36.60
2024-03-03T12:46:27.807Z,44.30
2024-03-03T12:48:55.482Z,30.40
2024-03-03T12:51:23.023Z,31.70
2024-03-03T12:53:50.732Z,29.20
2024-03-03T12:56:20.042Z,39.80
2024-03-03T12:58:48.507Z,33.10
2024-03-03T13:01:16.969Z,33.70
2024-03-03T13:03:55.692Z,29.10
2024-03-03T13:06:23.506Z,28.50
2024-03-03T13:08:54.516Z,37.20
2024-03-03T13:11:23.370Z,35.20
2024-03-03T13:13:51.784Z,27.60
2024-03-03T13:16:19.528Z,32.30
2024-03-03T13:19:02.671Z,30.60
2024-03-03T13:21:30.576Z,33.00
2024-03-03T13:24:17.062Z,31.50
2024-03-03T13:26:44.779Z,31.70
2024-03-03T13:29:12.372Z,33.60
2024-03-03T13:31:40.076Z,39.90
2024-03-03T13:34:07.911Z,39.70
2024-03-03T13:36:35.619Z,36.40
2024-03-03T13:39:03.426Z,40.30
2024-03-03T13:41:31.121Z,33.80
2024-03-03T13:43:58.838Z,23.10
2024-03-03T13:46:26.415Z,37.80
2024-03-03T13:48:54.256Z,34.60
2024-03-03T13:51:24.139Z,34.60
2024-03-03T13:53:51.719Z,29.80
2024-03-03T13:56:19.315Z,38.40
2024-03-03T13:58:46.867Z,39.60
2024-03-03T14:01:17.741Z,32.40
2024-03-03T14:03:45.704Z,38.90
2024-03-03T14:06:13.202Z,34.40
2024-03-03T14:08:40.797Z,34.80
2024-03-03T14:11:09.465Z,37.60
2024-03-03T14:13:37.152Z,26.90
2024-03-03T14:16:05.003Z,33.00
2024-03-03T14:18:32.595Z,35.00
2024-03-03T14:21:01.282Z,34.30
2024-03-03T14:23:28.924Z,34.10
2024-03-03T14:25:56.517Z,39.00
2024-03-03T14:28:24.335Z,31.10
2024-03-03T14:30:52.489Z,33.90
2024-03-03T14:33:20.457Z,33.70
2024-03-03T14:35:48.043Z,30.60
2024-03-03T14:38:15.819Z,32.50
2024-03-03T14:40:43.680Z,45.90
2024-03-03T14:43:11.402Z,30.50
2024-03-03T14:45:38.956Z,29.20
2024-03-03T14:48:07.203Z,34.70
2024-03-03T14:50:35.375Z,28.70
2024-03-03T14:53:03.047Z,33.10
2024-03-03T14:55:30.765Z,27.40
2024-03-03T14:57:58.453Z,29.20
2024-03-03T15:00:26.525Z,35.60
2024-03-03T15:02:54.100Z,30.30
2024-03-03T15:05:22.228Z,30.90
2024-03-03T15:07:51.823Z,26.50
2024-03-03T15:10:19.471Z,33.10
2024-03-03T15:12:47.099Z,25.90
2024-03-03T15:15:15.020Z,27.70
2024-03-03T15:17:42.598Z,39.00
2024-03-03T15:20:13.304Z,30.50
2024-03-03T15:22:40.947Z,26.90
2024-03-03T15:25:09.167Z,29.90
2024-03-03T15:27:37.989Z,32.70
2024-03-03T15:30:06.734Z,35.20
2024-03-03T15:32:34.403Z,32.10
2024-03-03T15:35:01.945Z,28.40
2024-03-03T15:37:30.787Z,26.10
2024-03-03T15:39:58.438Z,24.20
2024-03-03T15:42:25.918Z,31.50
2024-03-03T15:44:53.437Z,29.50
2024-03-03T15:47:20.947Z,23.30
2024-03-03T15:49:48.570Z,25.90
2024-03-03T15:52:16.140Z,20.60
2024-03-03T15:54:43.715Z,29.70
2024-03-03T15:57:11.241Z,26.10
2024-03-03T15:59:38.771Z,38.50
2024-03-03T16:02:06.518Z,30.90
2024-03-03T16:04:34.202Z,30.70
2024-03-03T16:07:01.861Z,31.10
2024-03-03T16:09:29.562Z,24.50
2024-03-03T16:11:57.360Z,27.00
2024-03-03T16:14:24.980Z,32.30
2024-03-03T16:16:52.659Z,42.10
2024-03-03T16:19:20.514Z,45.80
2024-03-03T16:21:48.193Z,57.60
2024-03-03T16:24:15.836Z,51.20
2024-03-03T16:26:44.514Z,51.90
2024-03-03T16:29:12.113Z,40.90
2024-03-03T16:31:40.379Z,33.70
2024-03-03T16:34:08.664Z,37.80
2024-03-03T16:36:36.342Z,29.00
2024-03-03T16:39:09.038Z,31.60
2024-03-03T16:41:36.911Z,38.60
2024-03-03T16:44:04.640Z,35.30
2024-03-03T16:46:32.376Z,44.20
2024-03-03T16:49:00.734Z,43.00
2024-03-03T16:51:28.677Z,29.60
2024-03-03T16:53:56.267Z,31.80
2024-03-03T16:56:23.873Z,27.00
2024-03-03T16:58:53.056Z,29.90
2024-03-03T17:01:21.886Z,22.80
2024-03-03T17:03:49.492Z,19.00
2024-03-03T17:06:17.389Z,26.20
2024-03-03T17:08:44.950Z,25.40
2024-03-03T17:11:12.676Z,16.40
2024-03-03T17:13:40.310Z,16.30
2024-03-03T17:16:07.907Z,21.40
2024-03-03T17:18:35.707Z,24.80
2024-03-03T17:21:06.274Z,19.90
2024-03-03T17:23:33.813Z,19.70
2024-03-03T17:26:01.350Z,29.40
2024-03-03T17:28:29.389Z,16.60
2024-03-03T17:30:57.940Z,21.10
2024-03-03T17:33:25.607Z,22.00
2024-03-03T17:35:53.202Z,19.60
2024-03-03T17:38:20.770Z,19.80
2024-03-03T17:40:48.325Z,14.80
2024-03-03T17:43:15.963Z,21.20
2024-03-03T17:45:43.504Z,20.30
2024-03-03T17:48:11.199Z,19.30
2024-03-03T17:50:38.922Z,18.40
2024-03-03T17:53:06.964Z,18.20
2024-03-03T17:55:35.805Z,12.60
2024-03-03T17:58:04.239Z,14.80
2024-03-03T18:00:31.825Z,20.70
2024-03-03T18:02:59.940Z,17.30
2024-03-03T18:05:27.561Z,15.20
2024-03-03T18:07:56.100Z,12.70
2024-03-03T18:10:23.758Z,21.30
2024-03-03T18:12:51.475Z,24.50
2024-03-03T18:15:19.172Z,23.20
2024-03-03T18:17:46.978Z,16.80
2024-03-03T18:20:16.940Z,24.70
2024-03-03T18:22:45.805Z,17.10
2024-03-03T18:25:13.664Z,19.40
2024-03-03T18:27:42.845Z,19.80
2024-03-03T18:30:11.681Z,24.10
2024-03-03T18:32:39.484Z,24.30
2024-03-03T18:35:14.080Z,33.50
2024-03-03T18:37:45.358Z,21.80
2024-03-03T18:40:16.107Z,23.00
2024-03-03T18:42:48.536Z,26.50
2024-03-03T18:45:16.362Z,26.80
2024-03-03T18:47:44.695Z,27.60
2024-03-03T18:50:14.029Z,27.50
2024-03-03T18:52:42.196Z,21.50
2024-03-03T18:55:09.994Z,22.70
2024-03-03T18:57:37.810Z,27.40
2024-03-03T19:00:08.873Z,33.30
2024-03-03T19:02:36.474Z,32.40
2024-03-03T19:05:08.309Z,26.20
2024-03-03T19:07:35.910Z,24.00
2024-03-03T19:10:04.060Z,38.70
2024-03-03T19:12:32.488Z,31.90
2024-03-03T19:15:00.180Z,28.00
2024-03-03T19:17:27.965Z,34.10
2024-03-03T19:19:55.587Z,28.60
2024-03-03T19:22:25.897Z,21.80
2024-03-03T19:24:53.684Z,38.70
2024-03-03T19:27:22.628Z,28.10
2024-03-03T19:29:50.519Z,27.30
2024-03-03T19:32:19.529Z,39.00
2024-03-03T19:34:47.133Z,27.40
2024-03-03T19:37:15.654Z,37.20
2024-03-03T19:39:44.410Z,26.20
2024-03-03T19:42:19.326Z,35.00
2024-03-03T19:44:47.995Z,33.60
2024-03-03T19:47:15.670Z,36.90
2024-03-03T19:49:45.035Z,31.40
2024-03-03T19:52:15.120Z,31.10
2024-03-03T19:54:43.103Z,21.70
2024-03-03T19:57:13.651Z,26.90
2024-03-03T19:59:42.435Z,30.60
2024-03-03T20:02:10.217Z,29.70
2024-03-03T20:04:37.932Z,29.00
2024-03-03T20:07:06.641Z,39.80
2024-03-03T20:09:35.786Z,32.20
2024-03-03T20:12:03.561Z,31.70
2024-03-03T20:14:31.351Z,29.70
2024-03-03T20:16:59.058Z,33.10
2024-03-03T20:19:28.241Z,31.40
2024-03-03T20:21:55.801Z,31.50
2024-03-03T20:24:23.480Z,28.50
2024-03-03T20:26:51.072Z,28.60
2024-03-03T20:29:18.620Z,32.20
2024-03-03T20:31:46.182Z,40.90
2024-03-03T20:34:14.007Z,27.10
2024-03-03T20:36:43.853Z,29.40
2024-03-03T20:39:11.452Z,35.30
2024-03-03T20:41:44.113Z,39.70
2024-03-03T20:44:11.711Z,33.50
2024-03-03T20:46:42.676Z,29.30
2024-03-03T20:49:10.831Z,36.40
2024-03-03T20:51:38.495Z,33.20
2024-03-03T20:54:09.234Z,31.90
2024-03-03T20:56:36.893Z,30.70
2024-03-03T20:59:04.525Z,36.60
2024-03-03T21:01:35.627Z,28.10
2024-03-03T21:04:03.150Z,39.80
2024-03-03T21:06:31.006Z,44.20
2024-03-03T21:08:58.800Z,34.20
2024-03-03T21:11:27.245Z,43.40
2024-03-03T21:13:59.204Z,40.30
2024-03-03T21:16:26.957Z,37.60
2024-03-03T21:18:54.626Z,32.30
2024-03-03T21:21:22.639Z,37.80
2024-03-03T21:23:50.158Z,38.50
2024-03-03T21:26:17.687Z,29.90
2024-03-03T21:28:45.299Z,37.50
2024-03-03T21:31:12.885Z,38.50
2024-03-03T21:33:40.404Z,47.70
2024-03-03T21:36:12.589Z,30.10
2024-03-03T21:38:40.339Z,38.00
2024-03-03T21:41:07.946Z,29.30
2024-03-03T21:43:35.589Z,37.40
2024-03-03T21:46:04.576Z,45.40
2024-03-03T21:48:32.108Z,38.90
2024-03-03T21:50:59.612Z,33.40
2024-03-03T21:53:27.051Z,44.10
2024-03-03T21:55:54.537Z,42.10
2024-03-03T21:58:22.919Z,30.70
2024-03-03T22:00:51.051Z,34.50
2024-03-03T22:03:18.716Z,34.60
2024-03-03T22:05:46.312Z,37.00
2024-03-03T22:08:13.778Z,31.60
2024-03-03T22:10:41.393Z,36.40
2024-03-03T22:13:09.059Z,36.30
2024-03-03T22:15:36.660Z,33.00
2024-03-03T22:18:04.410Z,37.70
2024-03-03T22:20:31.964Z,31.30
2024-03-03T22:22:59.436Z,35.00
2024-03-03T22:25:26.910Z,41.10
2024-03-03T22:27:55.094Z,32.30
2024-03-03T22:30:22.976Z,46.70
2024-03-03T22:32:50.531Z,31.50
2024-03-03T22:35:18.140Z,32.50
2024-03-03T22:37:45.628Z,37.40
2024-03-03T22:40:13.985Z,35.80
2024-03-03T22:42:41.681Z,27.60
2024-03-03T22:45:09.380Z,29.20
2024-03-03T22:47:36.986Z,39.30
2024-03-03T22:50:05.540Z,33.50
2024-03-03T22:52:33.804Z,33.40
2024-03-03T22:55:01.706Z,31.70
2024-03-03T22:57:29.383Z,27.80
2024-03-03T22:59:56.859Z,28.20
2024-03-03T23:02:24.421Z,30.00
2024-03-03T23:04:54.454Z,37.20
2024-03-03T23:07:23.065Z,35.70
2024-03-03T23:09:50.599Z,25.10
2024-03-03T23:12:18.686Z,32.60
2024-03-03T23:14:46.212Z,25.30
2024-03-03T23:17:13.960Z,32.00
2024-03-03T23:19:41.475Z,28.50
2024-03-03T23:22:09.004Z,22.50
2024-03-03T23:24:36.592Z,24.70
2024-03-03T23:27:04.340Z,21.90
2024-03-03T23:29:31.916Z,20.00
2024-03-03T23:31:59.572Z,17.50
2024-03-03T23:34:27.164Z,24.90
2024-03-03T23:36:54.697Z,18.70
2024-03-03T23:39:22.352Z,24.10
2024-03-03T23:41:50.966Z,16.80
2024-03-03T23:44:18.422Z,16.30
2024-03-03T23:46:45.907Z,12.70
2024-03-03T23:49:13.612Z,16.30
2024-03-03T23:51:41.166Z,17.80
2024-03-03T23:54:08.786Z,11.70
2024-03-03T23:56:37.923Z,11.90
2024-03-03T23:59:05.370Z,13.70
